メインページ
METAR-TAF:

METAR-TAF

空港 :

クウェート国際空港

クウェート, クウェート

緯度: 29-13N, 経度: 047-59E, 海抜: 55m

現時点の気象観測

当レポートは33分前の01:00(UTC)に作成
無風
気温 24°C
湿度 65%
気圧 1014 hPa
視程: 4000m
晴天
(弱い) 煙霧

METAR: OKBK 160100Z 00000KT 4000 -HZ SKC 24/17 Q1014 NOSIG

時間: 04:33 (01:33 UTC)

予報

当レポートは2時間48分前の22:45(UTC)に作成
予報は16日の 00時(UTC)から 17日の 06時(UTC)まで有効
南/南東の風 10kt
視程: 6000m
16日の 00時(UTC)から 16日の 06時(UTC)まで一時的に
変向風 3kt
視程: 2000m

TAF: OKBK 152245Z 1600/1706 16010KT 6000 NSC TEMPO 1600/1606 VRB03KT 2000 BR/HZ

4,000以上の空港の気象観測と天気予報(METAR報とTAF報)

利用可能な観測所は地図上に黄色い丸と赤い丸で示す。

丸の上にカーソルを重ねると観測所名を参照できる。

次にクリックすると気象観測と天気予報を参照できる。

マップの切り替え:黒色「×」印の緑ボタンをクリックして拡大、「-」印の緑ボタンをクリックして縮小、緑色の三角印をクリックして隣りの地図に切り替え


METAR-TAF: